Time;durP1;ratioP1;P1;durP2;ratioP2;P2;SDS_P1;SDS_P2;PMS_P1;PMS_P2;Temp;Humidity;BMP_temperature;BMP_pressure;BME280_temperature;BME280_humidity;BME280_pressure;Samples;Min_cycle;Max_cycle;Signal;HPM_P1;HPM_P2
2022/01/27 00:05:17;;;;;;;0.60;0.60;;;;;;;5.76;23.65;93302.41;4971434;28;20096;-88
2022/01/27 00:08:01;;;;;;;2.20;0.88;;;;;;;6.10;24.44;93344.00;4969567;28;20072;-88
2022/01/27 00:10:48;;;;;;;0.93;0.60;;;;;;;5.82;24.53;93311.84;4980029;28;20074;-88
2022/01/27 00:13:16;;;;;;;1.38;0.80;;;;;;;5.66;24.88;93299.66;4968103;28;20053;-88
2022/01/27 00:15:47;;;;;;;1.08;0.75;;;;;;;5.53;25.38;93306.72;4978904;28;20038;-88
2022/01/27 00:18:22;;;;;;;1.10;0.77;;;;;;;5.24;25.13;93274.81;4973117;28;20041;-87
2022/01/27 00:21:10;;;;;;;0.90;0.68;;;;;;;5.17;25.00;93268.97;4968862;28;20048;-87
2022/01/27 00:23:48;;;;;;;1.48;0.80;;;;;;;5.11;25.50;93275.91;4980842;28;20042;-88
2022/01/27 00:26:27;;;;;;;5.38;2.60;;;;;;;4.98;26.93;93271.75;4978422;28;20037;-87
2022/01/27 00:28:58;;;;;;;3.33;1.20;;;;;;;4.88;28.39;93275.97;4974979;28;20040;-88
2022/01/27 00:31:44;;;;;;;5.00;1.05;;;;;;;4.73;26.84;93268.72;4977029;28;20033;-87
2022/01/27 00:34:21;;;;;;;2.13;0.80;;;;;;;4.65;26.34;93267.25;4982780;28;20109;-88
2022/01/27 00:37:00;;;;;;;1.00;0.70;;;;;;;5.04;25.73;93332.31;4977384;28;20101;-88
2022/01/27 00:39:48;;;;;;;0.60;0.50;;;;;;;4.59;25.87;93263.78;4971716;28;20147;-88
2022/01/27 00:42:52;;;;;;;;;;;;;;;;;;;;;
2022/01/27 00:45:36;;;;;;;0.75;0.60;;;;;;;4.50;26.60;93256.56;5010130;28;20363;-88
2022/01/27 00:48:06;;;;;;;1.10;0.73;;;;;;;4.45;26.21;93262.44;4977211;28;20069;-87
2022/01/27 00:50:44;;;;;;;0.63;0.63;;;;;;;4.72;26.05;93304.22;5010712;28;20513;-87
2022/01/27 00:56:23;;;;;;;0.55;0.50;;;;;;;4.41;26.06;93252.78;4985142;28;20562;-88
2022/01/27 00:59:20;;;;;;;0.80;0.68;;;;;;;4.41;25.88;93266.50;4976114;28;20500;-87
2022/01/27 01:02:03;;;;;;;0.50;0.50;;;;;;;4.29;26.00;93245.81;4989451;28;20479;-88
2022/01/27 01:05:07;;;;;;;0.50;0.50;;;;;;;4.55;26.53;93290.41;4977613;28;20128;-88
2022/01/27 01:07:35;;;;;;;1.38;0.68;;;;;;;4.41;27.05;93289.06;4978458;28;20113;-88
2022/01/27 01:13:51;;;;;;;0.40;0.40;;;;;;;4.11;27.11;93251.91;4979106;28;20045;-88
2022/01/27 01:16:21;;;;;;;0.60;0.60;;;;;;;4.10;27.18;93249.56;4977052;28;20121;-88
2022/01/27 01:30:52;;;;;;;0.40;0.40;;;;;;;4.47;25.64;93290.75;4949799;28;20049;-88
2022/01/27 01:33:37;;;;;;;;;;;;;;;;;;;;;
2022/01/27 01:36:34;;;;;;;1.00;0.60;;;;;;;4.28;26.50;93272.75;4998686;28;20038;-88
2022/01/27 01:39:19;;;;;;;;;;;;;;;;;;;;;
2022/01/27 01:42:08;;;;;;;0.65;0.50;;;;;;;4.03;26.34;93243.69;4996821;28;20085;-88
2022/01/27 01:44:49;;;;;;;0.68;0.60;;;;;;;4.02;26.47;93234.34;4998369;28;20068;-87
2022/01/27 01:47:36;;;;;;;0.52;0.50;;;;;;;4.14;26.61;93256.66;4997941;28;20026;-87
2022/01/27 01:50:17;;;;;;;;;;;;;;;;;;;;;
2022/01/27 01:52:53;;;;;;;0.63;0.63;;;;;;;4.00;26.85;93228.63;4994784;28;20069;-88
2022/01/27 01:55:41;;;;;;;0.63;0.50;;;;;;;3.98;27.09;93226.25;4990520;28;20427;-87
2022/01/27 01:58:19;;;;;;;;;;;;;;;;;;;;;
2022/01/27 02:00:58;;;;;;;0.43;0.40;;;;;;;4.00;26.45;93218.25;4997057;28;20108;-88
2022/01/27 02:03:31;;;;;;;0.68;0.50;;;;;;;4.46;27.08;93294.34;4996448;28;20041;-88
2022/01/27 02:06:00;;;;;;;0.50;0.50;;;;;;;3.96;27.27;93218.72;4996980;28;20092;-87
2022/01/27 02:19:56;;;;;;;0.73;0.60;;;;;;;4.54;26.20;93281.81;4984904;28;20125;-88
2022/01/27 02:22:25;;;;;;;0.45;0.45;;;;;;;4.29;26.20;93237.25;4978420;28;20121;-87
2022/01/27 02:24:56;;;;;;;0.65;0.65;;;;;;;4.64;26.21;93275.25;4995772;28;20081;-87
2022/01/27 02:27:34;;;;;;;0.47;0.45;;;;;;;4.51;26.02;93250.38;4966444;28;20471;-87
2022/01/27 02:30:10;;;;;;;0.70;0.60;;;;;;;4.40;25.71;93227.88;4964805;28;20405;-88
2022/01/27 02:32:43;;;;;;;0.50;0.50;;;;;;;4.66;25.56;93247.28;4978899;28;20240;-89
2022/01/27 02:35:32;;;;;;;0.40;0.40;;;;;;;4.74;25.25;93244.34;4980216;28;20034;-88
2022/01/27 02:38:05;;;;;;;1.00;0.60;;;;;;;4.66;25.21;93218.75;4980319;28;20490;-88
2022/01/27 02:40:53;;;;;;;0.52;0.50;;;;;;;4.89;25.50;93244.63;4996006;28;20044;-88
2022/01/27 02:43:30;;;;;;;1.17;0.73;;;;;;;4.66;25.36;93206.59;4975592;28;20037;-87
2022/01/27 02:46:22;;;;;;;3.15;1.60;;;;;;;5.22;26.22;93254.28;4981279;28;20147;-87
2022/01/27 02:48:52;;;;;;;4.10;1.92;;;;;;;4.85;27.50;93199.41;4976238;28;20076;-89
2022/01/27 02:51:30;;;;;;;;;;;;;;;;;;;;;
2022/01/27 02:54:03;;;;;;;4.93;1.67;;;;;;;4.92;27.03;93192.25;4993934;28;20033;-88
2022/01/27 02:56:44;;;;;;;;;;;;;;;;;;;;;
2022/01/27 02:59:23;;;;;;;5.22;2.00;;;;;;;4.92;27.25;93187.06;4981431;28;20060;-88
2022/01/27 03:01:51;;;;;;;4.15;1.80;;;;;;;5.07;27.78;93242.84;4977691;28;20697;-87
2022/01/27 03:04:23;;;;;;;3.97;1.88;;;;;;;4.54;28.26;93187.69;4955990;28;20057;-88
2022/01/27 03:07:03;;;;;;;3.15;1.60;;;;;;;4.50;27.73;93194.34;4985627;28;20523;-88
2022/01/27 03:09:49;;;;;;;5.38;1.80;;;;;;;4.63;27.47;93196.66;4976609;28;20034;-87
2022/01/27 03:12:38;;;;;;;3.22;1.58;;;;;;;4.63;28.07;93214.81;4992932;28;20042;-88
2022/01/27 03:15:08;;;;;;;3.25;1.63;;;;;;;4.63;28.24;93232.97;4992452;28;20109;-87
2022/01/27 03:17:54;;;;;;;3.45;1.70;;;;;;;4.39;28.63;93211.53;4992335;28;20040;-88
2022/01/27 03:20:39;;;;;;;3.38;1.80;;;;;;;4.09;29.04;93188.38;4977654;28;20049;-88
2022/01/27 03:23:09;;;;;;;3.47;1.50;;;;;;;3.94;29.52;93178.47;4971928;28;20035;-87
2022/01/27 03:25:48;;;;;;;3.42;1.50;;;;;;;4.10;30.07;93221.06;4988513;28;20409;-88
2022/01/27 03:28:23;;;;;;;2.58;1.20;;;;;;;3.71;30.55;93176.72;4987195;28;20403;-88
2022/01/27 03:31:11;;;;;;;;;;;;;;;;;;;;;
2022/01/27 03:33:45;;;;;;;1.05;0.73;;;;;;;3.64;28.59;93179.41;4992883;28;20030;-87
2022/01/27 03:36:17;;;;;;;0.47;0.47;;;;;;;3.60;28.49;93177.50;4986928;28;20126;-88
2022/01/27 03:38:43;;;;;;;0.70;0.60;;;;;;;3.92;27.87;93217.59;4991254;28;20104;-88
2022/01/27 03:41:32;;;;;;;0.52;0.52;;;;;;;3.74;27.99;93204.78;4992903;28;20391;-88
2022/01/27 03:44:13;;;;;;;1.20;0.80;;;;;;;3.69;27.73;93191.69;4963040;28;20038;-88
2022/01/27 03:46:56;;;;;;;1.02;0.70;;;;;;;3.92;27.29;93222.78;4988241;28;20053;-88
2022/01/27 03:49:33;;;;;;;0.88;0.68;;;;;;;3.99;27.42;93222.66;4971695;28;20043;-87
2022/01/27 03:52:24;;;;;;;;;;;;;;;;;;;;;
2022/01/27 03:54:50;;;;;;;0.50;0.50;;;;;;;4.18;27.04;93236.25;4976804;28;20086;-88
2022/01/27 03:57:22;;;;;;;0.35;0.35;;;;;;;3.72;26.58;93165.34;4992067;28;20038;-88
2022/01/27 03:59:53;;;;;;;0.70;0.52;;;;;;;4.02;26.79;93208.44;4991500;28;20030;-87
2022/01/27 04:02:33;;;;;;;0.40;0.40;;;;;;;3.81;26.97;93174.34;4976736;28;20050;-88
2022/01/27 04:05:33;;;;;;;1.75;0.50;;;;;;;3.81;26.87;93176.94;4991582;28;20519;-88
2022/01/27 04:08:14;;;;;;;1.88;1.05;;;;;;;4.15;27.45;93232.31;4971762;28;20038;-87
2022/01/27 04:10:53;;;;;;;6.75;2.42;;;;;;;3.77;27.21;93177.63;4986586;28;20042;-88
2022/01/27 04:13:23;;;;;;;4.07;1.88;;;;;;;3.73;27.04;93177.28;4978045;28;20026;-87
2022/01/27 04:16:07;;;;;;;1.48;0.80;;;;;;;3.81;27.55;93189.13;4976739;28;20128;-88
2022/01/27 04:18:51;;;;;;;0.57;0.50;;;;;;;3.71;27.60;93179.31;4975478;28;20042;-88
2022/01/27 04:21:23;;;;;;;0.50;0.50;;;;;;;3.97;27.75;93225.47;4992267;28;20125;-87
2022/01/27 04:24:02;;;;;;;1.10;0.70;;;;;;;3.94;27.52;93225.94;4962914;28;20034;-88
2022/01/27 04:26:42;;;;;;;0.60;0.50;;;;;;;4.04;27.09;93222.75;4973901;28;20039;-87
2022/01/27 04:29:22;;;;;;;0.70;0.55;;;;;;;3.81;26.86;93191.69;4960360;28;20038;-86
2022/01/27 04:32:00;;;;;;;0.77;0.65;;;;;;;3.72;26.89;93175.72;4972991;28;20030;-87
2022/01/27 04:34:42;;;;;;;0.57;0.55;;;;;;;4.00;26.87;93218.25;4956273;28;20043;-88
2022/01/27 04:37:12;;;;;;;2.72;0.80;;;;;;;3.72;26.69;93160.19;4957138;28;20047;-88
2022/01/27 04:39:54;;;;;;;0.52;0.50;;;;;;;3.97;26.73;93201.38;4981313;28;20049;-87
2022/01/27 04:43:10;;;;;;;0.93;0.57;;;;;;;3.93;26.17;93179.50;4975259;28;20062;-87
2022/01/27 04:45:35;;;;;;;0.80;0.50;;;;;;;4.03;25.98;93197.06;4983946;28;20125;-87
2022/01/27 04:48:12;;;;;;;3.45;0.88;;;;;;;3.86;25.82;93161.50;4974654;28;20420;-88
2022/01/27 04:51:05;;;;;;;1.10;0.80;;;;;;;3.93;26.38;93167.34;4991213;28;20524;-88
2022/01/27 04:53:54;;;;;;;0.55;0.50;;;;;;;4.14;26.98;93216.97;4972412;28;20038;-88
2022/01/27 04:56:27;;;;;;;0.90;0.63;;;;;;;3.77;26.95;93164.69;4976110;28;20050;-88
2022/01/27 04:59:20;;;;;;;1.00;0.70;;;;;;;3.70;26.73;93160.41;4986054;28;20027;-87
2022/01/27 05:01:54;;;;;;;0.60;0.60;;;;;;;3.81;26.79;93184.72;4990679;28;20109;-87
2022/01/27 05:04:41;;;;;;;0.60;0.60;;;;;;;3.60;26.64;93151.63;4967962;28;20042;-87
2022/01/27 05:07:12;;;;;;;0.63;0.50;;;;;;;4.09;26.33;93235.03;4974829;28;20031;-87
2022/01/27 05:09:55;;;;;;;0.55;0.55;;;;;;;4.05;26.20;93218.34;4971420;28;20558;-86
2022/01/27 05:12:42;;;;;;;0.50;0.50;;;;;;;3.69;26.38;93156.25;4975152;28;20050;-88
2022/01/27 05:15:29;;;;;;;;;;;;;;;;;;;;;
2022/01/27 05:18:05;;;;;;;5.65;1.10;;;;;;;3.99;26.22;93196.75;4988077;28;20053;-88
2022/01/27 05:20:50;;;;;;;1.95;0.50;;;;;;;4.01;26.13;93199.91;4972034;28;20053;-88
2022/01/27 05:23:36;;;;;;;0.60;0.50;;;;;;;3.65;26.38;93136.22;4979072;28;20046;-87
2022/01/27 05:26:13;;;;;;;0.50;0.50;;;;;;;3.67;25.93;93136.75;4974733;28;20048;-88
2022/01/27 05:28:49;;;;;;;0.50;0.50;;;;;;;3.92;25.92;93170.19;4990336;28;20101;-87
2022/01/27 05:31:22;;;;;;;0.65;0.60;;;;;;;3.83;25.76;93154.19;4970451;28;20065;-87
2022/01/27 05:34:01;;;;;;;0.57;0.55;;;;;;;4.11;26.11;93191.53;4966105;28;20071;-87
2022/01/27 05:36:50;;;;;;;0.47;0.40;;;;;;;3.74;26.10;93142.63;4965261;28;20043;-87
2022/01/27 05:39:23;;;;;;;0.43;0.43;;;;;;;4.08;26.05;93202.38;4984224;28;20038;-87
2022/01/27 05:41:59;;;;;;;0.52;0.52;;;;;;;4.08;25.60;93194.59;4971834;28;20045;-87
2022/01/27 05:44:41;;;;;;;;;;;;;;;;;;;;;
2022/01/27 05:47:19;;;;;;;0.80;0.52;;;;;;;4.40;25.27;93222.69;4983274;28;20030;-87
2022/01/27 05:49:59;;;;;;;0.55;0.55;;;;;;;3.96;25.00;93146.19;4972003;28;20425;-88
2022/01/27 05:52:43;;;;;;;;;;;;;;;;;;;;;
2022/01/27 05:55:31;;;;;;;;;;;;;;;;;;;;;
2022/01/27 05:58:20;;;;;;;;;;;;;;;;;;;;;
2022/01/27 06:01:32;;;;;;;0.50;0.50;;;;;;;4.76;23.63;93221.56;4997975;28;20037;-90
2022/01/27 06:04:11;;;;;;;;;;;;;;;;;;;;;
2022/01/27 06:07:00;;;;;;;;;;;;;;;;;;;;;
2022/01/27 06:13:20;;;;;;;0.50;0.50;;;;;;;4.27;24.00;93157.13;5017535;28;20030;-89
2022/01/27 06:16:22;;;;;;;0.50;0.50;;;;;;;4.25;23.51;93156.56;5014570;28;20041;-90
2022/01/27 06:19:06;;;;;;;;;;;;;;;;;;;;;
2022/01/27 06:22:03;;;;;;;0.63;0.63;;;;;;;4.47;23.77;93192.22;4996803;28;20041;-89
2022/01/27 06:25:26;;;;;;;0.95;0.63;;;;;;;4.39;23.51;93175.25;4988692;28;20032;-87
2022/01/27 06:28:20;;;;;;;1.60;0.90;;;;;;;4.39;23.51;93164.88;5015918;28;20057;-90
2022/01/27 06:34:26;;;;;;;0.80;0.60;;;;;;;4.37;25.53;93166.91;4981263;28;20066;-88
2022/01/27 06:37:07;;;;;;;1.45;0.93;;;;;;;4.76;25.97;93243.09;4979144;28;20064;-90
2022/01/27 06:39:52;;;;;;;2.03;1.20;;;;;;;4.54;26.61;93219.59;4949605;28;20038;-90
2022/01/27 06:42:55;;;;;;;1.55;1.00;;;;;;;4.13;26.83;93166.97;4963118;28;20493;-90
2022/01/27 06:49:09;;;;;;;;;;;;;;;;;;;;;
2022/01/27 06:51:43;;;;;;;1.05;0.73;;;;;;;4.24;25.38;93180.13;4964833;28;20707;-89
2022/01/27 06:54:17;;;;;;;1.05;0.80;;;;;;;4.12;26.06;93174.97;4967752;28;20042;-87
2022/01/27 06:56:48;;;;;;;5.05;1.00;;;;;;;4.27;26.07;93208.97;4989939;28;20066;-86
2022/01/27 06:59:24;;;;;;;1.63;1.08;;;;;;;4.07;26.01;93185.22;4987205;28;20046;-87
2022/01/27 07:01:54;;;;;;;2.28;1.00;;;;;;;4.11;25.64;93194.91;5000852;28;20046;-87
2022/01/27 07:04:30;;;;;;;1.60;1.10;;;;;;;4.19;25.75;93211.91;4978802;28;20038;-88
2022/01/27 07:07:06;;;;;;;1.77;0.98;;;;;;;4.14;25.79;93204.84;4972053;28;20035;-86
2022/01/27 07:09:37;;;;;;;1.40;1.00;;;;;;;4.10;26.39;93201.13;4967941;28;20042;-86
2022/01/27 07:12:40;;;;;;;1.05;0.82;;;;;;;4.34;27.42;93245.91;4983375;28;20035;-88
2022/01/27 07:15:14;;;;;;;1.63;0.90;;;;;;;4.23;27.39;93238.94;4990418;28;20038;-87
2022/01/27 07:18:03;;;;;;;2.40;1.10;;;;;;;4.17;27.49;93232.88;4984169;28;20053;-87
2022/01/27 07:20:48;;;;;;;3.55;1.23;;;;;;;3.99;27.21;93211.50;4965167;28;20562;-86
2022/01/27 07:23:24;;;;;;;1.73;1.10;;;;;;;3.97;27.41;93209.91;4965642;28;20143;-86
2022/01/27 07:26:24;;;;;;;2.30;1.20;;;;;;;4.30;27.59;93260.34;4962619;28;20035;-87
2022/01/27 07:29:07;;;;;;;1.67;1.00;;;;;;;4.00;27.66;93215.66;4976578;28;20107;-87
2022/01/27 07:31:35;;;;;;;3.83;1.05;;;;;;;4.38;26.27;93272.94;4965675;28;20076;-87
2022/01/27 07:34:09;;;;;;;1.92;1.25;;;;;;;4.41;26.98;93268.31;4952695;28;20061;-87
2022/01/27 07:36:37;;;;;;;4.60;1.40;;;;;;;4.33;26.46;93251.31;4969219;28;20034;-87
2022/01/27 07:39:16;;;;;;;2.97;1.20;;;;;;;4.35;27.59;93247.50;4963741;28;20137;-87
2022/01/27 07:41:47;;;;;;;2.40;1.20;;;;;;;4.24;27.87;93219.78;4984028;28;20088;-87
2022/01/27 07:44:24;;;;;;;5.53;1.05;;;;;;;4.49;27.99;93258.38;4971849;28;20115;-86
2022/01/27 07:47:00;;;;;;;3.10;1.73;;;;;;;4.26;28.33;93216.97;4975258;28;20093;-87
2022/01/27 07:49:41;;;;;;;3.53;1.60;;;;;;;4.27;28.75;93224.50;4990745;28;20041;-86
2022/01/27 07:52:13;;;;;;;4.30;1.30;;;;;;;4.49;28.14;93260.19;4985318;28;20032;-89
2022/01/27 07:54:49;;;;;;;7.43;1.88;;;;;;;4.36;27.94;93230.13;4978942;28;20046;-87
2022/01/27 08:00:06;;;;;;;4.57;2.00;;;;;;;4.68;28.30;93268.59;5004032;28;20070;-87
2022/01/27 08:02:45;;;;;;;2.55;1.50;;;;;;;4.47;26.46;93233.72;4979288;28;20081;-87
2022/01/27 08:05:22;;;;;;;2.78;1.45;;;;;;;4.89;26.53;93277.56;4975919;28;20034;-87
2022/01/27 08:08:12;;;;;;;;;;;;;;;;;;;;;
2022/01/27 08:10:41;;;;;;;7.32;2.22;;;;;;;4.97;27.33;93261.59;4985920;28;20042;-86
2022/01/27 08:13:14;;;;;;;4.05;1.83;;;;;;;5.28;28.11;93306.28;4993688;28;20134;-87
2022/01/27 08:16:02;;;;;;;2.15;1.20;;;;;;;4.86;27.98;93236.50;4978448;28;20030;-88
2022/01/27 08:18:43;;;;;;;2.47;1.20;;;;;;;4.87;28.28;93222.53;4969636;28;20080;-88
2022/01/27 08:21:13;;;;;;;3.60;1.42;;;;;;;4.96;28.80;93236.69;4997666;28;20026;-90
2022/01/27 08:23:51;;;;;;;1.75;1.08;;;;;;;5.16;28.81;93257.03;4993868;28;20030;-89
2022/01/27 08:26:42;;;;;;;1.70;1.08;;;;;;;5.38;28.67;93285.69;4978030;28;20034;-87
2022/01/27 08:29:21;;;;;;;1.20;0.90;;;;;;;5.42;28.38;93277.19;4990396;28;20041;-88
2022/01/27 08:34:36;;;;;;;1.75;1.00;;;;;;;5.31;29.38;93241.69;4994394;28;20042;-87
2022/01/27 08:37:21;;;;;;;1.88;0.88;;;;;;;5.94;28.03;93320.38;4976304;28;20041;-87
2022/01/27 08:40:03;;;;;;;1.15;0.93;;;;;;;5.95;27.31;93303.00;4977774;28;20121;-88
2022/01/27 08:42:46;;;;;;;1.25;0.82;;;;;;;5.94;27.89;93278.00;5011850;28;20040;-87
2022/01/27 08:45:24;;;;;;;2.05;0.82;;;;;;;5.89;28.08;93244.13;4965989;28;20038;-88
2022/01/27 08:48:20;;;;;;;;;;;;;;;;;;;;;
2022/01/27 08:51:20;;;;;;;;;;;;;;;;;;;;;
2022/01/27 09:11:30;;;;;;;;;;;;;;;;;;;;;
2022/01/27 09:21:45;;;;;;;8.30;3.40;;;;;;;7.56;32.42;93329.66;5090462;27;1375847;-76
2022/01/27 09:24:17;;;;;;;9.25;3.00;;;;;;;7.89;31.35;93333.88;5122140;27;20118;-75
2022/01/27 09:29:13;;;;;;;5.53;2.40;;;;;;;8.41;30.21;93335.06;5108515;28;20032;-76
2022/01/27 09:31:39;;;;;;;4.50;2.20;;;;;;;8.83;28.39;93336.88;5120350;27;20384;-76
2022/01/27 09:34:05;;;;;;;4.35;1.90;;;;;;;8.77;26.15;93332.66;5120742;28;20035;-76
2022/01/27 09:36:31;;;;;;;9.18;2.85;;;;;;;8.83;30.92;93334.25;5119059;28;20035;-76
2022/01/27 09:38:57;;;;;;;11.43;3.20;;;;;;;8.74;30.01;93338.38;5106519;27;20028;-76
2022/01/27 09:41:26;;;;;;;5.78;2.60;;;;;;;8.99;28.51;93335.09;5102003;28;20050;-76
2022/01/27 09:43:53;;;;;;;5.15;2.20;;;;;;;8.72;26.58;93340.47;5117468;27;20035;-75
2022/01/27 09:46:25;;;;;;;4.15;1.85;;;;;;;9.16;25.31;93340.94;5118543;28;20039;-76
2022/01/27 09:48:52;;;;;;;4.40;2.00;;;;;;;9.41;23.67;93343.84;5109930;28;20043;-76
2022/01/27 09:53:52;;;;;;;8.95;3.90;;;;;;;9.82;27.52;93349.16;5085892;28;20080;-76
2022/01/27 09:56:19;;;;;;;12.88;5.00;;;;;;;9.90;29.74;93354.66;5086365;28;20489;-75
2022/01/27 09:58:44;;;;;;;9.60;4.68;;;;;;;10.44;28.82;93348.16;5061181;28;20056;-77
2022/01/27 10:01:10;;;;;;;14.07;5.25;;;;;;;10.71;28.30;93331.34;5110149;28;20232;-77
2022/01/27 10:04:01;;;;;;;6.07;3.00;;;;;;;11.22;25.61;93339.06;5128500;28;20118;-77
2022/01/27 10:06:31;;;;;;;18.27;8.32;;;;;;;10.81;31.63;93333.97;5127660;28;20035;-75
2022/01/27 10:09:17;;;;;;;15.45;7.20;;;;;;;10.55;30.01;93338.47;5117644;28;20361;-75
2022/01/27 10:11:46;;;;;;;12.77;6.78;;;;;;;9.93;29.88;93342.91;5125234;27;20063;-75
2022/01/27 10:14:23;;;;;;;16.77;8.30;;;;;;;9.85;32.87;93331.13;5114568;28;20032;-76
2022/01/27 10:16:55;;;;;;;12.48;6.07;;;;;;;9.78;30.68;93343.69;5123282;28;20113;-75
2022/01/27 10:19:22;;;;;;;15.02;7.32;;;;;;;9.82;30.79;93334.28;5110475;27;20396;-76
2022/01/27 10:21:49;;;;;;;18.70;9.23;;;;;;;9.72;33.69;93334.25;5106372;28;20047;-76
2022/01/27 10:24:24;;;;;;;17.83;9.65;;;;;;;9.51;34.16;93330.81;5099408;28;20032;-75
2022/01/27 10:32:38;;;;;;;20.60;9.55;;;;;;;9.59;34.09;93333.72;5117410;27;20046;-76
2022/01/27 10:35:05;;;;;;;19.83;8.95;;;;;;;9.37;33.90;93333.94;5095638;28;20435;-75
2022/01/27 10:38:16;;;;;;;23.23;9.00;;;;;;;9.61;35.20;93336.06;5075116;28;20028;-75
2022/01/27 10:40:45;;;;;;;25.42;11.38;;;;;;;9.51;36.58;93334.22;5090386;28;20485;-76
2022/01/27 10:43:20;;;;;;;16.38;8.38;;;;;;;9.61;34.86;93325.59;5093544;28;20024;-76
2022/01/27 10:46:14;;;;;;;23.52;9.55;;;;;;;9.64;35.28;93329.56;5093006;28;20405;-76
2022/01/27 10:48:54;;;;;;;13.85;6.07;;;;;;;9.01;31.42;93332.25;5093134;28;20040;-77
2022/01/27 10:51:27;;;;;;;15.68;7.20;;;;;;;9.14;30.34;93329.13;5093360;28;20396;-76
2022/01/27 10:54:04;;;;;;;13.05;5.53;;;;;;;9.21;30.96;93328.91;5093335;28;20069;-76
2022/01/27 10:56:39;;;;;;;12.77;6.57;;;;;;;9.54;30.32;93322.47;5072446;28;20033;-76
2022/01/27 10:59:10;;;;;;;17.23;7.45;;;;;;;9.94;30.72;93323.56;5072949;28;20128;-76
2022/01/27 11:01:41;;;;;;;23.55;10.32;;;;;;;9.95;33.43;93317.28;5071480;28;20037;-77
2022/01/27 11:04:17;;;;;;;22.67;9.18;;;;;;;9.84;34.84;93318.31;5072824;28;20083;-77
2022/01/27 11:06:58;;;;;;;23.25;11.52;;;;;;;9.58;37.16;93313.06;5095777;28;20084;-76
2022/01/27 11:09:25;;;;;;;24.00;12.32;;;;;;;9.55;36.85;93316.97;5100734;28;20085;-76
2022/01/27 11:11:56;;;;;;;21.80;11.65;;;;;;;9.67;34.93;93308.88;5074783;28;20130;-76
2022/01/27 11:14:24;;;;;;;18.60;9.55;;;;;;;9.57;35.50;93306.28;5093089;28;20078;-76
2022/01/27 11:16:52;;;;;;;21.80;10.30;;;;;;;9.45;37.05;93301.28;5094283;28;20051;-76
2022/01/27 11:19:35;;;;;;;25.55;12.63;;;;;;;10.18;36.78;93306.28;5092987;28;20043;-76
2022/01/27 11:22:24;;;;;;;28.25;11.88;;;;;;;10.05;36.13;93303.44;5092729;28;20082;-76
2022/01/27 11:27:53;;;;;;;32.13;13.18;;;;;;;9.50;37.51;93297.88;5070862;28;20127;-76
2022/01/27 11:30:43;;;;;;;28.95;12.50;;;;;;;9.50;38.20;93290.03;5090902;28;20067;-76
2022/01/27 11:33:13;;;;;;;23.48;11.55;;;;;;;9.63;37.62;93299.22;5092981;28;20107;-77
2022/01/27 11:35:39;;;;;;;25.20;13.30;;;;;;;8.97;40.02;93290.19;5095641;28;20045;-78
2022/01/27 11:38:06;;;;;;;32.55;13.75;;;;;;;8.89;41.81;93291.47;5105519;28;20027;-77
2022/01/27 11:40:43;;;;;;;28.98;15.45;;;;;;;9.19;41.33;93284.78;5090366;28;20043;-78
2022/01/27 11:43:11;;;;;;;28.35;14.68;;;;;;;9.25;41.34;93285.56;5095799;28;20031;-77
2022/01/27 11:45:37;;;;;;;30.88;14.40;;;;;;;9.20;42.19;93294.16;5090834;28;20020;-77
2022/01/27 11:48:10;;;;;;;32.05;15.18;;;;;;;9.23;40.73;93292.84;5093505;28;20046;-76
2022/01/27 11:50:50;;;;;;;24.65;11.98;;;;;;;9.23;40.46;93283.22;5109042;28;20057;-77
2022/01/27 11:53:28;;;;;;;20.08;10.95;;;;;;;9.35;38.17;93275.13;5107565;28;20032;-75
2022/01/27 11:55:54;;;;;;;22.08;12.10;;;;;;;9.34;37.45;93279.59;5091206;28;20393;-76
2022/01/27 11:58:21;;;;;;;26.17;12.10;;;;;;;9.42;38.25;93274.88;5091303;28;20077;-76
2022/01/27 12:01:06;;;;;;;29.70;12.10;;;;;;;9.02;37.90;93273.75;5088558;28;20404;-76
2022/01/27 12:03:33;;;;;;;23.55;12.45;;;;;;;8.78;38.18;93268.97;5090289;28;20063;-76
2022/01/27 12:06:16;;;;;;;25.88;11.02;;;;;;;9.15;37.59;93262.81;5091824;28;20035;-75
2022/01/27 12:08:42;;;;;;;22.73;10.77;;;;;;;9.34;36.16;93256.06;5073674;28;20042;-76
2022/01/27 12:11:10;;;;;;;21.10;9.48;;;;;;;9.16;35.17;93261.75;5109974;28;20062;-75
2022/01/27 12:13:44;;;;;;;12.98;6.63;;;;;;;8.78;35.60;93263.75;5110529;28;20036;-75
2022/01/27 12:19:08;;;;;;;17.33;8.30;;;;;;;8.88;35.15;93258.56;5110577;28;20073;-76
2022/01/27 12:21:54;;;;;;;15.73;7.65;;;;;;;8.66;34.71;93248.28;5107536;28;20043;-75
2022/01/27 12:24:25;;;;;;;17.30;8.40;;;;;;;9.31;34.12;93253.19;5089329;28;20113;-76
2022/01/27 12:27:02;;;;;;;20.55;8.95;;;;;;;9.73;33.85;93239.88;5091196;28;20419;-76
2022/01/27 12:29:34;;;;;;;14.95;7.05;;;;;;;9.81;33.59;93238.56;5089574;28;20431;-76
2022/01/27 12:32:05;;;;;;;19.80;8.55;;;;;;;9.61;34.68;93235.94;5091560;28;20066;-76
2022/01/27 12:34:33;;;;;;;23.20;8.98;;;;;;;9.70;33.86;93240.38;5092211;28;20473;-76
2022/01/27 12:37:04;;;;;;;21.27;8.88;;;;;;;9.49;34.61;93233.59;5091430;28;20412;-75
2022/01/27 12:39:33;;;;;;;17.38;8.27;;;;;;;9.44;35.08;93233.59;5089701;28;20147;-75
2022/01/27 12:42:00;;;;;;;17.23;8.07;;;;;;;9.80;33.44;93235.16;5091779;28;20031;-75
2022/01/27 12:44:28;;;;;;;18.15;9.13;;;;;;;9.84;34.57;93227.59;5089370;28;20036;-75
2022/01/27 12:47:05;;;;;;;16.13;7.10;;;;;;;9.59;32.95;93223.13;5090416;28;20042;-76
2022/01/27 12:49:47;;;;;;;17.40;7.70;;;;;;;9.05;32.37;93223.59;5075832;28;20452;-76
2022/01/27 12:52:28;;;;;;;17.33;8.38;;;;;;;9.52;34.94;93218.16;5090486;28;20032;-76
2022/01/27 12:54:54;;;;;;;12.75;6.10;;;;;;;9.18;32.73;93220.50;5090586;28;20039;-76
2022/01/27 12:57:28;;;;;;;18.30;8.57;;;;;;;9.61;34.02;93215.81;5089920;28;20469;-76
2022/01/27 12:59:56;;;;;;;23.40;8.77;;;;;;;9.54;34.33;93210.06;5090555;28;20070;-76
2022/01/27 13:02:24;;;;;;;19.67;8.77;;;;;;;9.21;35.06;93209.53;5091722;28;20067;-76
2022/01/27 13:04:54;;;;;;;22.30;9.50;;;;;;;9.71;35.29;93194.91;5099585;28;20032;-76
2022/01/27 13:07:21;;;;;;;22.27;11.32;;;;;;;9.84;35.54;93195.41;5091234;28;20046;-76
2022/01/27 13:10:02;;;;;;;17.85;8.85;;;;;;;9.68;34.50;93195.44;5090394;28;20547;-75
2022/01/27 13:12:37;;;;;;;25.63;10.13;;;;;;;9.69;35.51;93188.38;5089334;28;20071;-73
2022/01/27 13:15:09;;;;;;;23.15;9.15;;;;;;;10.30;34.82;93180.44;5089292;28;20052;-76
2022/01/27 13:20:30;;;;;;;21.60;9.88;;;;;;;10.23;34.05;93181.75;5090596;28;20048;-76
2022/01/27 13:23:07;;;;;;;23.15;10.45;;;;;;;10.50;34.04;93176.19;5090351;28;20040;-76
2022/01/27 13:25:43;;;;;;;22.48;9.98;;;;;;;10.45;34.65;93174.38;5108877;28;20031;-76
2022/01/27 13:28:20;;;;;;;22.30;10.32;;;;;;;10.21;35.05;93167.06;5110803;28;20115;-76
2022/01/27 13:30:50;;;;;;;21.80;10.02;;;;;;;9.84;35.79;93174.50;5089188;28;20105;-76
2022/01/27 13:33:18;;;;;;;24.17;11.30;;;;;;;9.95;35.99;93170.81;5090540;28;20111;-76
2022/01/27 13:35:44;;;;;;;23.50;11.50;;;;;;;9.68;37.45;93169.31;5076827;28;20036;-75
2022/01/27 13:38:24;;;;;;;21.30;11.00;;;;;;;10.07;37.20;93171.31;5090275;28;20106;-76
2022/01/27 13:41:22;;;;;;;19.98;9.80;;;;;;;10.07;35.55;93160.84;5090173;28;20032;-76
2022/01/27 13:43:49;;;;;;;22.25;10.70;;;;;;;10.05;36.10;93155.09;5090249;28;20035;-76
2022/01/27 13:46:47;;;;;;;21.58;9.88;;;;;;;9.99;36.21;93159.53;5091334;28;20038;-76
2022/01/27 13:49:32;;;;;;;19.42;10.02;;;;;;;9.98;36.07;93150.16;5090302;28;20030;-76
2022/01/27 13:52:04;;;;;;;20.30;10.13;;;;;;;10.08;35.74;93145.94;5090024;28;20044;-76
2022/01/27 13:54:29;;;;;;;21.63;10.35;;;;;;;9.91;35.94;93149.66;5087137;28;20077;-76
2022/01/27 13:57:01;;;;;;;23.50;10.05;;;;;;;9.73;36.31;93150.22;5087277;28;20114;-76
2022/01/27 13:59:54;;;;;;;24.30;10.48;;;;;;;9.49;36.84;93142.91;5090189;28;20028;-76
2022/01/27 14:02:31;;;;;;;23.33;10.05;;;;;;;9.63;36.89;93134.53;5090242;28;20407;-76
2022/01/27 14:05:18;;;;;;;22.48;9.88;;;;;;;9.68;37.85;93137.94;5091069;28;20039;-76
2022/01/27 14:07:53;;;;;;;28.23;11.88;;;;;;;9.69;38.02;93138.72;5091887;28;20396;-76
2022/01/27 14:10:37;;;;;;;25.70;11.02;;;;;;;9.66;38.13;93141.84;5093875;28;20115;-76
2022/01/27 14:13:06;;;;;;;29.17;11.30;;;;;;;9.83;37.49;93131.09;5092346;28;20503;-76
2022/01/27 14:15:43;;;;;;;23.67;10.40;;;;;;;10.28;36.65;93129.38;5093938;28;20024;-76
2022/01/27 14:18:20;;;;;;;25.17;11.07;;;;;;;9.99;36.68;93127.38;5111675;28;20122;-74
2022/01/27 14:20:55;;;;;;;24.58;10.75;;;;;;;9.75;36.50;93137.66;5098634;28;20072;-76
2022/01/27 14:24:08;;;;;;;21.30;10.32;;;;;;;9.58;36.33;93133.47;5093718;28;20044;-76
2022/01/27 14:28:58;;;;;;;23.65;10.40;;;;;;;10.01;36.75;93125.28;5113656;28;20024;-76
2022/01/27 14:31:25;;;;;;;19.75;10.15;;;;;;;9.99;37.75;93127.38;5107242;28;20027;-76
2022/01/27 14:33:51;;;;;;;22.63;10.13;;;;;;;10.08;36.61;93130.25;5093080;28;20032;-76